SSEC Globe Logo

Space Science and Engineering Center

Regional Terminal Forecasts

TAF KMSN 171120Z 1712/1812 VRB04KT P6SM OVC020 FM171600
     07005KT P6SM BKN025 FM171800 07005KT P6SM BKN035
     FM180700 VRB03KT P6SM SCT060=
KMKE 171120Z 1712/1818 03006KT P6SM OVC020 FM171900 05005KT
     P6SM SCT025 BKN060 FM180000 VRB04KT P6SM BKN120=
KGRB 171120Z 1712/1812 03003KT P6SM BKN070 FM171400 07005KT
     P6SM BKN100 FM171800 12006KT P6SM SCT060 FM180100
     VRB03KT P6SM SCT150 FM180600 21002KT P6SM SCT090=
KAUW 171120Z 1712/1812 VRB03KT P6SM SCT120 FM171600 18003KT
     P6SM SCT070 FM180900 VRB03KT P6SM BKN040=
TAF KEAU 171120Z 1712/1812 VRB03KT P6SM BKN010 FM171500
     VRB03KT P6SM SCT015 BKN035 FM172000 23005KT P6SM VCSH
     SCT050 FM180000 22003KT P6SM SCT100 FM180600 32003KT
     P6SM BKN100=
KLSE 171120Z 1712/1812 11005KT P6SM OVC018 FM171500 15005KT
     P6SM BKN025 FM171800 19005KT P6SM BKN040 FM180000
     16004KT P6SM VCSH BKN040=
TAF KDBQ 171132Z 1712/1812 04004KT P6SM OVC009 FM171400
     08005KT P6SM BKN014 FM171800 06004KT P6SM BKN025
     FM172000 06004KT P6SM BKN040 FM180500 12004KT P6SM
     BKN120=
TAF TAF KRFD 171127Z 1712/1812 03005KT P6SM SCT008 OVC012
     TEMPO 1712/1715 BKN008 FM172000 06007KT P6SM BKN035
     FM180800 VRB03KT 4SM BR BKN025=
KORD 171127Z 1712/1818 02006KT P6SM OVC007 FM171600 03007KT
     P6SM OVC015 FM172100 04007KT P6SM BKN025 FM181500
     04003KT P6SM SCT045=